Time;durP1;ratioP1;P1;durP2;ratioP2;P2;SDS_P1;SDS_P2;PMS_P1;PMS_P2;Temp;Humidity;BMP_temperature;BMP_pressure;BME280_temperature;BME280_humidity;BME280_pressure;Samples;Min_cycle;Max_cycle;Signal;HPM_P1;HPM_P2
2023/08/08 00:01:25;;;;;;;4.57;1.80;;;13.70;99.90;;;;;;5125918;27;20078;-58
2023/08/08 00:03:51;;;;;;;5.70;1.92;;;13.70;99.90;;;;;;5127546;27;20061;-58
2023/08/08 00:06:16;;;;;;;4.55;2.00;;;13.70;99.90;;;;;;5107686;28;20055;-59
2023/08/08 00:08:42;;;;;;;3.88;1.92;;;13.60;99.90;;;;;;5126235;27;20108;-56
2023/08/08 00:11:08;;;;;;;6.43;2.50;;;13.60;99.90;;;;;;5129844;27;20055;-57
2023/08/08 00:13:36;;;;;;;4.05;1.90;;;13.60;99.90;;;;;;5126716;27;20052;-56
2023/08/08 00:16:02;;;;;;;3.80;2.00;;;14.50;99.90;;;;;;5129322;27;20203;-56
2023/08/08 00:18:28;;;;;;;6.05;2.13;;;13.60;99.90;;;;;;5106498;27;20560;-56
2023/08/08 00:20:54;;;;;;;4.68;2.25;;;13.60;99.90;;;;;;5106638;28;20192;-56
2023/08/08 00:23:23;;;;;;;7.10;2.20;;;13.60;99.90;;;;;;5107045;27;20126;-56
2023/08/08 00:25:50;;;;;;;5.65;2.28;;;13.60;99.90;;;;;;5107913;27;20496;-57
2023/08/08 00:28:17;;;;;;;3.55;2.00;;;13.60;99.90;;;;;;5128624;27;20039;-57
2023/08/08 00:30:43;;;;;;;4.47;1.77;;;13.50;99.90;;;;;;5123496;27;20522;-57
2023/08/08 00:33:08;;;;;;;2.03;1.75;;;13.50;99.90;;;;;;5125142;27;20484;-56
2023/08/08 00:35:34;;;;;;;3.13;2.25;;;13.40;99.90;;;;;;5126477;27;20100;-56
2023/08/08 00:38:00;;;;;;;3.67;2.15;;;13.40;99.90;;;;;;5128724;27;20048;-56
2023/08/08 00:40:25;;;;;;;3.45;1.85;;;13.40;99.90;;;;;;5114534;27;20059;-57
2023/08/08 00:42:51;;;;;;;3.83;2.13;;;13.30;99.90;;;;;;5124303;27;20493;-56
2023/08/08 00:45:17;;;;;;;4.45;2.47;;;13.30;99.90;;;;;;5124387;27;20055;-56
2023/08/08 00:47:43;;;;;;;2.72;1.90;;;13.30;99.90;;;;;;5121589;27;20132;-56
2023/08/08 00:50:09;;;;;;;3.83;1.67;;;13.30;99.90;;;;;;5104475;28;20058;-56
2023/08/08 00:52:37;;;;;;;1.77;1.63;;;13.30;99.90;;;;;;5122553;27;20104;-56
2023/08/08 00:55:03;;;;;;;2.88;1.67;;;13.30;99.90;;;;;;5126676;27;20062;-56
2023/08/08 00:57:29;;;;;;;6.07;2.80;;;13.20;99.90;;;;;;5124832;27;20055;-56
2023/08/08 00:59:54;;;;;;;2.60;2.00;;;13.20;99.90;;;;;;5104376;28;20059;-56
2023/08/08 01:02:24;;;;;;;3.95;1.90;;;13.20;99.90;;;;;;5122669;27;20084;-55
2023/08/08 01:04:50;;;;;;;3.78;2.53;;;13.10;99.90;;;;;;5103346;27;20059;-56
2023/08/08 01:07:23;;;;;;;6.80;2.33;;;13.10;99.90;;;;;;5121666;27;20068;-57
2023/08/08 01:10:19;;;;;;;3.22;2.40;;;13.10;99.90;;;;;;5124053;27;20062;-56
2023/08/08 01:12:50;;;;;;;3.47;2.58;;;13.10;99.90;;;;;;5121777;27;20070;-57
2023/08/08 01:15:17;;;;;;;6.03;2.97;;;13.10;99.90;;;;;;5126510;27;20048;-56
2023/08/08 01:17:45;;;;;;;3.20;2.30;;;13.00;99.90;;;;;;5104739;27;20074;-56
2023/08/08 01:20:14;;;;;;;3.42;2.78;;;13.00;99.90;;;;;;5126697;27;20137;-56
2023/08/08 01:22:50;;;;;;;4.72;2.00;;;13.00;99.90;;;;;;5124424;27;20054;-57
2023/08/08 01:25:16;;;;;;;4.53;2.45;;;13.00;99.90;;;;;;5125523;27;20055;-56
2023/08/08 01:27:43;;;;;;;5.80;2.35;;;13.00;99.90;;;;;;5123549;27;20067;-56
2023/08/08 01:30:09;;;;;;;4.78;3.05;;;12.90;99.90;;;;;;5125762;27;20082;-56
2023/08/08 01:32:35;;;;;;;3.95;2.08;;;12.90;99.90;;;;;;5103075;27;20505;-56
2023/08/08 01:35:00;;;;;;;4.97;2.70;;;12.80;99.90;;;;;;5123812;27;20035;-56
2023/08/08 01:37:35;;;;;;;4.07;2.58;;;12.90;99.90;;;;;;5124105;27;20569;-55
2023/08/08 01:40:02;;;;;;;3.03;2.28;;;12.80;99.90;;;;;;5122535;27;20075;-56
2023/08/08 01:42:29;;;;;;;4.28;2.65;;;12.80;99.90;;;;;;5122247;27;20051;-55
2023/08/08 01:44:55;;;;;;;5.32;2.42;;;12.70;99.90;;;;;;5107361;27;20675;-56
2023/08/08 01:47:25;;;;;;;3.45;2.70;;;12.70;99.90;;;;;;5101554;27;20078;-56
2023/08/08 01:49:51;;;;;;;4.95;2.65;;;12.70;99.90;;;;;;5119113;27;20377;-56
2023/08/08 01:52:16;;;;;;;5.07;2.53;;;12.70;99.90;;;;;;5125708;27;20062;-56
2023/08/08 01:54:42;;;;;;;2.08;1.88;;;12.70;99.90;;;;;;5120719;27;20393;-56
2023/08/08 01:57:08;;;;;;;4.35;2.65;;;12.70;99.90;;;;;;5125428;27;20411;-56
2023/08/08 01:59:34;;;;;;;4.10;2.25;;;12.70;99.90;;;;;;5123306;27;20064;-56
2023/08/08 02:01:59;;;;;;;3.75;2.58;;;12.70;99.90;;;;;;5125550;27;20057;-56
2023/08/08 02:04:25;;;;;;;7.38;3.10;;;12.80;99.90;;;;;;5111512;28;20061;-55
2023/08/08 02:06:51;;;;;;;4.63;3.33;;;12.80;99.90;;;;;;5102621;28;20085;-56
2023/08/08 02:09:16;;;;;;;5.25;2.50;;;12.80;99.90;;;;;;5103622;28;20130;-56
2023/08/08 02:11:42;;;;;;;7.28;2.35;;;12.80;99.90;;;;;;5121987;27;20065;-56
2023/08/08 02:14:08;;;;;;;6.13;2.78;;;12.80;99.90;;;;;;5098721;28;20067;-57
2023/08/08 02:16:34;;;;;;;3.85;2.22;;;12.80;99.90;;;;;;5113317;27;20066;-56
2023/08/08 02:19:00;;;;;;;2.72;2.00;;;12.90;99.90;;;;;;5121726;27;20045;-56
2023/08/08 02:21:26;;;;;;;4.30;2.38;;;13.00;99.90;;;;;;5116369;27;20531;-56
2023/08/08 02:23:52;;;;;;;4.53;3.05;;;13.00;99.90;;;;;;5102403;28;20056;-56
2023/08/08 02:26:19;;;;;;;4.10;2.35;;;13.00;99.90;;;;;;5116577;27;20083;-58
2023/08/08 02:28:44;;;;;;;5.45;2.83;;;13.00;99.90;;;;;;5119255;27;20622;-58
2023/08/08 02:31:10;;;;;;;6.03;2.47;;;13.10;99.90;;;;;;5119515;27;20050;-58
2023/08/08 02:33:36;;;;;;;2.70;2.42;;;13.10;99.90;;;;;;5106976;27;20512;-59
2023/08/08 02:36:02;;;;;;;3.58;2.38;;;13.10;99.90;;;;;;5116954;27;20081;-58
2023/08/08 02:38:27;;;;;;;4.55;2.40;;;13.10;99.90;;;;;;5115856;27;20130;-58
2023/08/08 02:40:53;;;;;;;6.40;2.10;;;13.10;99.90;;;;;;5121679;27;20079;-59
2023/08/08 02:43:18;;;;;;;5.85;3.08;;;13.10;99.90;;;;;;5101813;28;20054;-58
2023/08/08 02:45:44;;;;;;;2.60;2.38;;;13.10;99.90;;;;;;5103296;28;20556;-59
2023/08/08 02:48:10;;;;;;;2.88;2.65;;;13.10;99.90;;;;;;5126969;27;20078;-58
2023/08/08 02:50:36;;;;;;;2.03;1.75;;;13.10;99.90;;;;;;5123235;27;20115;-59
2023/08/08 02:53:01;;;;;;;2.95;2.50;;;13.10;99.90;;;;;;5120740;27;20054;-58
2023/08/08 02:55:27;;;;;;;4.35;2.85;;;13.20;99.90;;;;;;5106755;27;20056;-58
2023/08/08 02:57:53;;;;;;;4.50;2.88;;;13.20;99.90;;;;;;5125793;27;20076;-57
2023/08/08 03:00:18;;;;;;;4.22;2.50;;;13.20;99.90;;;;;;5104751;28;20101;-57
2023/08/08 03:02:44;;;;;;;7.50;2.95;;;13.20;99.90;;;;;;5104906;27;20067;-56
2023/08/08 03:05:10;;;;;;;3.97;2.60;;;13.20;99.90;;;;;;5126757;27;20613;-57
2023/08/08 03:07:35;;;;;;;6.63;3.05;;;13.20;99.90;;;;;;5122600;27;20519;-56
2023/08/08 03:10:01;;;;;;;3.42;2.50;;;13.30;99.90;;;;;;5125648;27;20579;-56
2023/08/08 03:12:27;;;;;;;2.55;2.08;;;13.30;99.90;;;;;;5123918;27;20504;-56
2023/08/08 03:14:52;;;;;;;7.50;2.20;;;13.30;99.90;;;;;;5129731;27;20076;-56
2023/08/08 03:17:18;;;;;;;3.15;2.35;;;13.20;99.90;;;;;;5130309;27;20054;-57
2023/08/08 03:19:44;;;;;;;3.70;2.65;;;13.30;99.90;;;;;;5125788;27;20468;-57
2023/08/08 03:22:09;;;;;;;6.78;2.45;;;13.30;99.90;;;;;;5130428;27;20458;-58
2023/08/08 03:24:35;;;;;;;7.88;2.97;;;13.30;99.90;;;;;;5125315;27;20058;-58
2023/08/08 03:27:01;;;;;;;9.13;3.33;;;13.30;99.90;;;;;;5108471;28;20051;-57
2023/08/08 03:29:26;;;;;;;5.85;2.58;;;13.30;99.90;;;;;;5125615;27;20142;-57
2023/08/08 03:31:52;;;;;;;5.50;2.20;;;13.30;99.90;;;;;;5128810;27;20111;-56
2023/08/08 03:34:17;;;;;;;4.53;1.85;;;13.30;99.90;;;;;;5108144;28;20051;-58
2023/08/08 03:36:43;;;;;;;6.28;2.10;;;13.40;99.90;;;;;;5126477;27;20051;-56
2023/08/08 03:39:09;;;;;;;3.03;1.88;;;13.30;99.90;;;;;;5124224;27;20484;-57
2023/08/08 03:41:36;;;;;;;4.07;1.73;;;13.30;99.90;;;;;;5120824;27;20798;-57
2023/08/08 03:44:02;;;;;;;3.28;1.50;;;13.30;99.90;;;;;;5120863;27;20500;-57
2023/08/08 03:46:28;;;;;;;4.00;1.90;;;13.30;99.90;;;;;;5111698;27;20089;-57
2023/08/08 03:48:54;;;;;;;6.47;2.90;;;13.30;99.90;;;;;;5127037;27;20568;-57
2023/08/08 03:53:49;;;;;;;4.22;2.20;;;13.30;99.90;;;;;;5125261;27;20078;-59
2023/08/08 03:56:15;;;;;;;5.38;2.03;;;13.20;99.90;;;;;;5065371;28;1161871;-56
2023/08/08 03:58:40;;;;;;;5.78;1.92;;;13.20;99.90;;;;;;5124152;27;20090;-57
2023/08/08 04:01:07;;;;;;;5.28;2.00;;;13.10;99.90;;;;;;5127622;27;20526;-55
2023/08/08 04:03:33;;;;;;;6.22;2.20;;;13.10;99.90;;;;;;5122381;27;20556;-56
2023/08/08 04:05:58;;;;;;;4.88;2.35;;;13.00;99.90;;;;;;5127446;27;20145;-56
2023/08/08 04:08:24;;;;;;;4.63;1.65;;;13.00;99.90;;;;;;5124137;27;20079;-56
2023/08/08 04:10:50;;;;;;;4.95;1.58;;;13.00;99.90;;;;;;5106658;27;20066;-58
2023/08/08 04:13:15;;;;;;;17.02;2.08;;;13.00;99.90;;;;;;5129066;27;20412;-62
2023/08/08 04:15:41;;;;;;;4.25;1.30;;;13.00;99.90;;;;;;5104959;27;20047;-59
2023/08/08 04:18:07;;;;;;;4.65;1.55;;;13.00;99.90;;;;;;5128659;27;20427;-58
2023/08/08 04:20:34;;;;;;;3.15;1.77;;;13.00;99.90;;;;;;5119830;27;20103;-56
2023/08/08 04:22:59;;;;;;;3.53;1.45;;;13.00;99.90;;;;;;5129082;27;20050;-56
2023/08/08 04:25:26;;;;;;;3.85;1.38;;;13.00;99.90;;;;;;5127744;27;20447;-54
2023/08/08 04:27:53;;;;;;;3.30;1.38;;;13.10;99.90;;;;;;5127899;27;20497;-59
2023/08/08 04:30:18;;;;;;;2.83;1.63;;;13.10;99.90;;;;;;5128679;27;20062;-56
2023/08/08 04:32:44;;;;;;;5.50;1.30;;;13.10;99.90;;;;;;5123879;27;20058;-56
2023/08/08 04:35:10;;;;;;;3.25;1.48;;;13.10;99.90;;;;;;5098443;28;20493;-56
2023/08/08 04:37:36;;;;;;;3.15;1.45;;;13.10;99.90;;;;;;5122181;27;20054;-56
2023/08/08 04:40:02;;;;;;;3.75;1.95;;;13.20;99.90;;;;;;5125995;27;20070;-56
2023/08/08 04:42:28;;;;;;;5.03;1.70;;;13.20;99.90;;;;;;5126521;27;20051;-55
2023/08/08 04:44:53;;;;;;;3.75;1.65;;;13.30;99.90;;;;;;5103254;28;20406;-56
2023/08/08 04:47:19;;;;;;;6.85;1.67;;;13.30;99.90;;;;;;5124026;27;20146;-57
2023/08/08 04:49:45;;;;;;;6.13;1.60;;;13.40;99.90;;;;;;5090107;27;20768;-57
2023/08/08 04:52:10;;;;;;;3.40;1.67;;;13.50;99.90;;;;;;5128625;27;20404;-56
2023/08/08 04:54:36;;;;;;;3.30;1.77;;;13.60;99.90;;;;;;5118910;27;20054;-55
2023/08/08 04:57:02;;;;;;;4.50;1.35;;;13.70;99.90;;;;;;5102337;27;20047;-58
2023/08/08 04:59:27;;;;;;;10.23;2.10;;;12.60;99.90;;;;;;5119506;27;20079;-57
2023/08/08 05:01:53;;;;;;;6.03;1.73;;;13.80;99.90;;;;;;5113577;27;20055;-56
2023/08/08 05:04:19;;;;;;;2.67;1.92;;;13.80;99.90;;;;;;5117457;27;20059;-56
2023/08/08 05:06:46;;;;;;;3.67;2.10;;;13.80;99.90;;;;;;5117314;27;20059;-56
2023/08/08 05:09:11;;;;;;;5.22;2.30;;;14.00;99.90;;;;;;5107606;27;20501;-56
2023/08/08 05:11:37;;;;;;;10.50;2.67;;;14.00;99.90;;;;;;5099964;27;20054;-57
2023/08/08 05:14:03;;;;;;;2.05;1.30;;;14.10;99.90;;;;;;5100557;28;20085;-56
2023/08/08 05:16:28;;;;;;;3.90;1.65;;;14.20;99.90;;;;;;5098077;28;20051;-56
2023/08/08 05:18:54;;;;;;;5.75;2.15;;;14.30;99.90;;;;;;5101467;27;20075;-57
2023/08/08 05:21:24;;;;;;;2.92;1.38;;;14.30;99.90;;;;;;5116254;27;20042;-57
2023/08/08 05:23:49;;;;;;;3.53;1.67;;;14.30;99.90;;;;;;5118644;27;20043;-58
2023/08/08 05:26:15;;;;;;;3.13;1.80;;;14.40;99.90;;;;;;5121306;27;20062;-57
2023/08/08 05:28:41;;;;;;;7.30;1.70;;;14.40;99.90;;;;;;5116407;27;20051;-57
2023/08/08 05:31:07;;;;;;;7.05;1.60;;;14.50;99.90;;;;;;5121182;27;20043;-57
2023/08/08 05:33:32;;;;;;;5.47;1.95;;;14.60;99.90;;;;;;5116713;27;20134;-57
2023/08/08 05:35:58;;;;;;;3.92;1.73;;;14.60;99.90;;;;;;5120548;27;20385;-57
2023/08/08 05:38:24;;;;;;;4.38;1.30;;;14.80;99.90;;;;;;5119489;27;20053;-55
2023/08/08 05:40:50;;;;;;;5.38;1.38;;;14.80;99.90;;;;;;5117247;27;20055;-57
2023/08/08 05:43:18;;;;;;;5.28;1.63;;;14.90;99.90;;;;;;5120252;27;20143;-57
2023/08/08 05:45:46;;;;;;;5.65;1.80;;;14.90;99.90;;;;;;5115405;27;21513;-57
2023/08/08 05:48:12;;;;;;;6.00;1.05;;;15.00;99.90;;;;;;5125126;27;20051;-56
2023/08/08 05:50:39;;;;;;;10.60;1.83;;;15.10;99.90;;;;;;5117194;27;20059;-57
2023/08/08 05:53:04;;;;;;;7.85;1.67;;;15.20;99.90;;;;;;5119708;27;20053;-56
2023/08/08 05:55:30;;;;;;;7.32;1.60;;;15.30;99.90;;;;;;5119013;27;20055;-56
2023/08/08 05:57:56;;;;;;;3.20;1.17;;;15.30;99.90;;;;;;5121241;27;20051;-56
2023/08/08 06:00:25;;;;;;;6.47;1.75;;;15.50;99.90;;;;;;5122781;27;20059;-56
2023/08/08 06:02:50;;;;;;;4.68;1.85;;;15.50;99.90;;;;;;5118489;27;20485;-56
2023/08/08 06:05:17;;;;;;;3.20;1.52;;;15.60;99.90;;;;;;5114395;27;20055;-57
2023/08/08 06:07:43;;;;;;;6.72;1.15;;;15.80;99.90;;;;;;5116809;27;20059;-57
2023/08/08 06:10:09;;;;;;;3.17;1.20;;;16.00;99.90;;;;;;5116056;27;20062;-58
2023/08/08 06:12:35;;;;;;;4.93;2.55;;;16.00;99.90;;;;;;5117264;27;20082;-57
2023/08/08 06:15:01;;;;;;;3.72;1.00;;;16.10;99.90;;;;;;5119048;27;20135;-57
2023/08/08 06:17:27;;;;;;;7.30;1.83;;;16.20;99.90;;;;;;5100000;28;20043;-57
2023/08/08 06:19:54;;;;;;;5.10;1.45;;;16.20;99.90;;;;;;5084159;28;20070;-56
2023/08/08 06:22:24;;;;;;;2.25;1.15;;;16.30;99.90;;;;;;5115743;27;20051;-56
2023/08/08 06:24:49;;;;;;;5.70;1.52;;;16.40;99.90;;;;;;5114606;27;21217;-56
2023/08/08 06:27:15;;;;;;;5.90;1.08;;;16.40;99.90;;;;;;5093788;28;20062;-56
2023/08/08 06:29:41;;;;;;;4.38;1.00;;;16.40;99.90;;;;;;5118809;27;20175;-56
2023/08/08 06:32:07;;;;;;;5.28;1.65;;;16.60;99.90;;;;;;5117394;27;20663;-56
2023/08/08 06:34:33;;;;;;;3.97;1.05;;;16.60;99.90;;;;;;5116708;27;20067;-56
2023/08/08 06:36:59;;;;;;;4.43;1.40;;;16.60;99.90;;;;;;5118912;27;20061;-56
2023/08/08 06:39:25;;;;;;;5.90;1.40;;;16.60;99.90;;;;;;5118085;27;20073;-56
2023/08/08 06:41:51;;;;;;;3.33;1.48;;;16.70;99.90;;;;;;5120684;27;20130;-58
2023/08/08 06:44:16;;;;;;;11.45;1.67;;;16.60;99.90;;;;;;5116246;27;20271;-58
2023/08/08 06:46:42;;;;;;;3.00;0.98;;;16.90;99.90;;;;;;5104379;27;20484;-56
2023/08/08 06:49:09;;;;;;;6.03;1.50;;;16.90;99.90;;;;;;5106713;28;20054;-56
2023/08/08 06:51:35;;;;;;;4.18;0.85;;;17.00;99.90;;;;;;5121594;27;20112;-56
2023/08/08 06:54:01;;;;;;;3.22;1.05;;;17.10;99.90;;;;;;5123488;27;20059;-63
2023/08/08 06:56:27;;;;;;;4.65;1.02;;;17.20;99.90;;;;;;5125256;27;20104;-60
2023/08/08 06:58:53;;;;;;;5.78;1.20;;;17.30;99.90;;;;;;5126347;27;20051;-57
2023/08/08 07:01:19;;;;;;;5.43;1.40;;;17.50;99.90;;;;;;5122639;27;20078;-56
2023/08/08 07:03:46;;;;;;;5.35;1.38;;;17.70;99.90;;;;;;5121707;27;20124;-57
2023/08/08 07:06:12;;;;;;;3.10;0.98;;;17.80;99.90;;;;;;5106329;27;20079;-62
2023/08/08 07:08:39;;;;;;;4.38;1.05;;;17.90;99.90;;;;;;5119877;27;20079;-57
2023/08/08 07:11:06;;;;;;;7.60;1.23;;;17.90;99.90;;;;;;5123132;27;20126;-57
2023/08/08 07:13:32;;;;;;;2.58;0.90;;;17.80;99.90;;;;;;5108569;27;20044;-59
2023/08/08 07:15:58;;;;;;;5.90;1.30;;;17.90;99.90;;;;;;5115903;27;20111;-62
2023/08/08 07:18:24;;;;;;;3.05;1.00;;;18.00;99.90;;;;;;5093202;28;20051;-54
2023/08/08 07:20:49;;;;;;;3.72;0.90;;;17.60;99.90;;;;;;5119868;27;20050;-57
2023/08/08 07:23:18;;;;;;;6.22;1.38;;;17.70;99.90;;;;;;5096900;27;20569;-58
2023/08/08 07:25:45;;;;;;;3.80;1.00;;;17.70;99.90;;;;;;5111511;27;20055;-56
2023/08/08 07:28:11;;;;;;;4.32;1.10;;;18.10;99.90;;;;;;5111521;27;20089;-58
2023/08/08 07:30:36;;;;;;;2.03;0.73;;;17.90;99.90;;;;;;5101394;27;20088;-58
2023/08/08 07:33:02;;;;;;;3.85;1.63;;;18.00;99.90;;;;;;5117604;27;20043;-57
2023/08/08 07:35:28;;;;;;;5.97;0.93;;;17.90;99.90;;;;;;5114996;27;20060;-57
2023/08/08 07:37:54;;;;;;;7.63;1.58;;;18.30;99.90;;;;;;5103856;27;20097;-57
2023/08/08 07:40:24;;;;;;;5.15;0.93;;;18.40;99.90;;;;;;5107106;27;20142;-57
2023/08/08 07:42:50;;;;;;;2.55;0.70;;;18.40;99.90;;;;;;5109754;27;20142;-56
2023/08/08 07:45:16;;;;;;;3.35;1.05;;;18.40;99.90;;;;;;5114411;27;20146;-57
2023/08/08 07:47:45;;;;;;;3.22;1.08;;;18.40;99.90;;;;;;5125059;27;20399;-56
2023/08/08 07:50:11;;;;;;;2.65;0.60;;;18.20;99.90;;;;;;5125416;27;20115;-57
2023/08/08 07:52:37;;;;;;;10.77;1.50;;;18.30;99.90;;;;;;5125694;27;20511;-56
2023/08/08 07:55:04;;;;;;;3.80;1.05;;;18.40;99.90;;;;;;5112990;27;20564;-56
2023/08/08 07:57:31;;;;;;;3.30;0.70;;;18.20;99.90;;;;;;5121208;27;20055;-56
2023/08/08 07:59:57;;;;;;;4.43;1.20;;;18.20;99.90;;;;;;5128834;27;20058;-57
2023/08/08 08:02:24;;;;;;;3.20;0.70;;;18.00;99.90;;;;;;5127041;27;20054;-57
2023/08/08 08:04:50;;;;;;;2.50;0.85;;;18.30;99.90;;;;;;5095274;28;20048;-57
2023/08/08 08:07:16;;;;;;;5.28;1.10;;;18.40;99.90;;;;;;5110303;27;20059;-57
2023/08/08 08:09:42;;;;;;;7.22;1.23;;;18.60;99.90;;;;;;5125162;27;20058;-57
2023/08/08 08:12:08;;;;;;;1.38;0.90;;;19.00;99.90;;;;;;5089885;28;20059;-56
2023/08/08 08:14:34;;;;;;;7.72;2.40;;;19.30;99.90;;;;;;5084030;27;1140063;-56
2023/08/08 08:17:00;;;;;;;4.65;1.05;;;20.00;99.90;;;;;;5127548;27;20142;-56
2023/08/08 08:19:26;;;;;;;4.43;1.13;;;19.30;99.90;;;;;;5117713;27;20056;-56
2023/08/08 08:21:52;;;;;;;1.92;0.93;;;19.40;99.90;;;;;;5119958;27;20142;-57
2023/08/08 08:24:18;;;;;;;0.95;0.60;;;19.50;99.90;;;;;;5113849;27;20145;-57
2023/08/08 08:26:44;;;;;;;0.77;0.40;;;18.80;99.90;;;;;;5112059;27;20128;-57
2023/08/08 08:29:09;;;;;;;5.55;1.48;;;19.00;99.90;;;;;;5104707;27;20052;-57
2023/08/08 08:31:37;;;;;;;5.85;1.63;;;19.00;99.90;;;;;;5112266;27;20108;-56
2023/08/08 08:34:03;;;;;;;3.35;1.08;;;19.10;99.90;;;;;;5117494;27;20059;-58
2023/08/08 08:36:29;;;;;;;3.35;1.15;;;19.10;99.90;;;;;;5119666;27;20057;-58
2023/08/08 08:38:54;;;;;;;4.22;1.73;;;18.70;99.90;;;;;;5097928;28;20056;-56
2023/08/08 08:41:24;;;;;;;2.60;0.93;;;18.80;99.90;;;;;;5103789;27;20052;-58
2023/08/08 08:43:49;;;;;;;3.25;1.10;;;18.80;99.90;;;;;;5108113;27;20135;-57
2023/08/08 08:46:19;;;;;;;4.00;0.77;;;18.80;99.90;;;;;;5122502;27;20126;-56
2023/08/08 08:48:46;;;;;;;4.07;1.45;;;18.60;99.90;;;;;;5125748;27;20108;-57
2023/08/08 08:51:12;;;;;;;7.22;1.45;;;18.10;99.90;;;;;;5128291;27;20416;-59
2023/08/08 08:53:39;;;;;;;4.85;1.05;;;18.50;99.90;;;;;;5120392;27;20055;-57
2023/08/08 08:56:05;;;;;;;5.55;1.02;;;19.00;99.90;;;;;;5120235;27;20055;-56
2023/08/08 08:58:31;;;;;;;4.15;0.82;;;18.90;99.90;;;;;;5123713;27;20056;-56
2023/08/08 09:00:58;;;;;;;6.25;0.95;;;18.60;99.90;;;;;;5125205;27;20561;-56
2023/08/08 09:03:25;;;;;;;4.10;1.02;;;18.80;99.90;;;;;;5119597;27;20531;-56
2023/08/08 09:05:54;;;;;;;5.13;0.70;;;18.70;99.90;;;;;;5118204;27;20051;-56
2023/08/08 09:08:24;;;;;;;4.53;1.27;;;19.20;99.90;;;;;;5085913;28;20532;-56
2023/08/08 09:10:51;;;;;;;1.60;0.55;;;19.60;99.90;;;;;;5111069;27;20075;-56
2023/08/08 09:13:17;;;;;;;2.35;0.80;;;20.00;99.90;;;;;;5103769;27;20040;-56
2023/08/08 09:15:42;;;;;;;3.58;0.82;;;20.20;99.90;;;;;;5100600;27;20512;-57
2023/08/08 09:18:08;;;;;;;1.60;0.70;;;19.60;99.90;;;;;;5113790;27;20135;-56
2023/08/08 09:20:34;;;;;;;4.18;0.90;;;19.80;99.90;;;;;;5109874;27;20047;-56
2023/08/08 09:23:00;;;;;;;1.73;0.60;;;20.20;99.90;;;;;;5111049;27;20047;-57
2023/08/08 09:25:26;;;;;;;7.75;1.10;;;20.70;99.90;;;;;;5110123;27;20104;-57
2023/08/08 09:27:55;;;;;;;4.00;1.15;;;20.60;99.90;;;;;;5106673;27;20051;-57
2023/08/08 09:30:26;;;;;;;3.95;0.93;;;20.90;99.90;;;;;;5113930;27;20051;-56
2023/08/08 09:32:51;;;;;;;4.85;1.17;;;20.50;99.90;;;;;;5093363;27;20061;-56
2023/08/08 09:35:18;;;;;;;3.00;0.88;;;20.00;99.90;;;;;;5100495;27;20051;-57
2023/08/08 09:37:45;;;;;;;3.05;0.55;;;19.50;99.90;;;;;;5116007;27;20065;-58
2023/08/08 09:40:11;;;;;;;2.58;0.85;;;19.40;99.90;;;;;;5098483;28;20059;-56
2023/08/08 09:42:37;;;;;;;3.25;0.82;;;19.90;99.90;;;;;;5109425;27;20131;-57
2023/08/08 09:45:03;;;;;;;1.88;0.60;;;20.20;99.90;;;;;;5104258;27;20546;-57
2023/08/08 09:47:31;;;;;;;1.77;0.63;;;19.80;99.90;;;;;;5122635;27;20071;-57
2023/08/08 09:50:00;;;;;;;2.60;1.20;;;20.10;99.90;;;;;;5119502;27;20057;-57
2023/08/08 09:52:27;;;;;;;2.55;0.90;;;19.50;99.90;;;;;;5104299;28;20398;-56
2023/08/08 09:54:54;;;;;;;2.50;0.75;;;19.30;99.90;;;;;;5126042;27;20082;-57
2023/08/08 09:59:51;;;;;;;2.72;1.48;;;19.90;99.90;;;;;;5124394;27;20770;-57
2023/08/08 10:02:17;;;;;;;3.28;1.10;;;19.40;99.90;;;;;;5124535;27;20057;-57
2023/08/08 10:04:45;;;;;;;8.60;1.10;;;19.10;99.90;;;;;;5124277;27;20051;-57
2023/08/08 10:07:11;;;;;;;2.72;0.60;;;19.10;99.90;;;;;;5105127;28;20059;-57
2023/08/08 10:09:37;;;;;;;4.68;1.15;;;18.50;99.90;;;;;;5123083;27;20055;-55
2023/08/08 10:12:07;;;;;;;3.00;0.90;;;18.40;99.90;;;;;;5120333;27;20039;-63
2023/08/08 10:14:39;;;;;;;1.73;0.93;;;18.40;99.90;;;;;;5092811;28;20062;-64
2023/08/08 10:17:12;;;;;;;2.67;0.85;;;19.00;99.90;;;;;;5101979;28;20043;-63
2023/08/08 10:19:38;;;;;;;2.95;1.10;;;19.20;99.90;;;;;;5122515;27;20051;-61
2023/08/08 10:22:05;;;;;;;7.07;0.98;;;18.60;99.90;;;;;;5122146;27;20059;-65
2023/08/08 10:24:35;;;;;;;3.75;1.60;;;17.60;99.90;;;;;;5120368;27;20142;-56
2023/08/08 10:27:02;;;;;;;3.78;0.85;;;17.10;99.90;;;;;;5118035;27;20476;-57
2023/08/08 10:29:31;;;;;;;4.55;1.10;;;16.00;99.90;;;;;;5116337;27;20059;-56
2023/08/08 10:32:03;;;;;;;4.53;0.70;;;15.60;99.90;;;;;;5102156;28;20051;-56
2023/08/08 10:34:46;;;;;;;1.65;0.65;;;15.30;99.90;;;;;;5120628;27;20392;-56
2023/08/08 10:37:17;;;;;;;2.28;0.75;;;15.50;99.90;;;;;;5121468;27;20058;-56
2023/08/08 10:39:58;;;;;;;1.92;0.63;;;15.90;99.90;;;;;;5111413;27;20085;-57
2023/08/08 10:42:26;;;;;;;5.65;0.90;;;16.20;99.90;;;;;;5122456;27;20063;-56
2023/08/08 10:45:01;;;;;;;4.40;1.33;;;16.60;99.90;;;;;;5118868;27;20185;-58
2023/08/08 10:47:37;;;;;;;5.93;1.15;;;17.30;99.90;;;;;;5102117;28;20097;-57
2023/08/08 10:50:11;;;;;;;4.65;2.60;;;17.80;99.90;;;;;;5120248;27;20508;-57
2023/08/08 10:52:52;;;;;;;3.80;1.42;;;17.80;99.90;;;;;;5122050;27;20047;-57
2023/08/08 10:55:25;;;;;;;5.28;1.58;;;18.40;99.90;;;;;;5123468;27;20059;-57
2023/08/08 10:58:03;;;;;;;4.17;1.80;;;19.20;99.90;;;;;;5106724;27;20116;-58
2023/08/08 11:00:34;;;;;;;2.53;1.08;;;19.10;99.90;;;;;;5121675;27;20055;-57
2023/08/08 11:03:01;;;;;;;8.13;1.50;;;19.50;99.90;;;;;;5098570;28;20394;-57
2023/08/08 11:05:31;;;;;;;4.38;1.20;;;18.90;99.90;;;;;;5117092;27;20055;-62
2023/08/08 11:07:57;;;;;;;2.10;0.80;;;18.30;99.90;;;;;;5119264;27;20544;-61
2023/08/08 11:10:30;;;;;;;5.88;1.50;;;17.80;99.90;;;;;;5117711;27;20080;-59
2023/08/08 11:13:04;;;;;;;7.97;1.70;;;17.70;99.90;;;;;;5075098;28;20147;-59
2023/08/08 11:15:32;;;;;;;6.22;1.50;;;18.10;99.90;;;;;;5116117;27;20056;-57
2023/08/08 11:17:59;;;;;;;4.47;1.77;;;19.00;99.90;;;;;;5120390;27;20081;-56
2023/08/08 11:20:29;;;;;;;6.10;1.13;;;19.90;99.90;;;;;;5115945;27;20055;-56
2023/08/08 11:22:57;;;;;;;5.43;1.23;;;20.10;99.90;;;;;;5118832;27;20066;-57
2023/08/08 11:25:29;;;;;;;3.55;1.30;;;20.20;99.90;;;;;;5117380;27;20047;-57
2023/08/08 11:27:56;;;;;;;3.45;0.98;;;20.20;99.90;;;;;;5112858;27;20054;-56
2023/08/08 11:30:30;;;;;;;6.18;1.30;;;20.30;99.90;;;;;;5117319;27;20117;-57
2023/08/08 11:32:55;;;;;;;;;;;21.60;99.90;;;;;;5119720;27;20074;-57
2023/08/08 11:35:27;;;;;;;8.68;1.33;;;23.10;99.90;;;;;;5122096;27;20474;-57
2023/08/08 11:37:54;;;;;;;1.23;0.88;;;21.50;99.90;;;;;;5118548;27;21334;-60
2023/08/08 11:40:24;;;;;;;2.17;0.85;;;23.60;99.90;;;;;;5121503;27;20059;-57
2023/08/08 11:42:51;;;;;;;3.03;0.93;;;24.20;99.90;;;;;;5115320;27;20051;-59
2023/08/08 11:45:17;;;;;;;3.85;0.90;;;24.60;99.90;;;;;;5120886;27;20138;-59
2023/08/08 11:47:43;;;;;;;3.03;1.77;;;25.10;99.90;;;;;;5115423;27;20531;-58
2023/08/08 11:50:10;;;;;;;2.40;1.02;;;25.80;99.90;;;;;;5123663;27;20051;-57
2023/08/08 11:52:45;;;;;;;2.53;0.57;;;23.50;99.90;;;;;;5119974;27;20074;-57
2023/08/08 11:55:12;;;;;;;5.07;1.17;;;23.90;99.90;;;;;;5122448;27;20062;-56
2023/08/08 11:57:39;;;;;;;2.60;1.02;;;21.40;99.90;;;;;;5097607;28;20051;-57
2023/08/08 12:00:13;;;;;;;2.97;0.88;;;21.60;99.90;;;;;;5103802;27;20051;-57
2023/08/08 12:02:41;;;;;;;4.53;0.80;;;23.20;99.90;;;;;;5110568;27;20051;-57
2023/08/08 12:05:13;;;;;;;3.15;1.25;;;24.70;99.90;;;;;;5108578;27;20055;-57
2023/08/08 12:07:41;;;;;;;6.55;1.35;;;24.00;99.90;;;;;;5115416;27;20054;-57
2023/08/08 12:10:16;;;;;;;4.45;0.93;;;21.60;99.90;;;;;;5120726;27;20461;-57
2023/08/08 12:12:41;;;;;;;3.58;0.82;;;21.80;99.90;;;;;;5121942;27;20062;-57
2023/08/08 12:15:08;;;;;;;0.85;0.43;;;23.60;99.90;;;;;;5122163;27;20092;-57
2023/08/08 12:17:36;;;;;;;1.75;0.80;;;24.80;99.90;;;;;;5101715;27;20058;-57
2023/08/08 12:20:05;;;;;;;2.85;0.70;;;26.50;99.90;;;;;;5121290;27;20138;-57
2023/08/08 12:22:31;;;;;;;4.35;1.17;;;26.20;99.90;;;;;;5114658;27;20165;-57
2023/08/08 12:24:57;;;;;;;4.75;0.85;;;27.30;99.90;;;;;;5111608;27;20416;-58
2023/08/08 12:27:24;;;;;;;3.28;0.77;;;25.70;99.90;;;;;;5112514;27;20066;-57
2023/08/08 12:29:50;;;;;;;1.88;0.60;;;24.40;99.90;;;;;;5065676;27;1127759;-57
2023/08/08 12:32:16;;;;;;;3.05;1.30;;;22.20;99.90;;;;;;5112935;27;20056;-57
2023/08/08 12:34:42;;;;;;;4.03;0.82;;;21.30;99.90;;;;;;5094861;27;20166;-58
2023/08/08 12:37:07;;;;;;;2.22;0.85;;;20.70;99.90;;;;;;5115911;27;20051;-58
2023/08/08 12:39:33;;;;;;;3.33;0.85;;;19.70;99.90;;;;;;5116929;27;20043;-57
2023/08/08 12:41:59;;;;;;;3.10;1.38;;;19.90;99.90;;;;;;5118898;27;20058;-58
2023/08/08 12:44:24;;;;;;;5.63;1.27;;;21.70;99.90;;;;;;5114863;27;20505;-56
2023/08/08 12:46:50;;;;;;;4.35;1.25;;;24.50;99.90;;;;;;5100691;27;20055;-59
2023/08/08 12:49:16;;;;;;;4.20;1.17;;;23.20;99.90;;;;;;5111999;27;20150;-57